Time;durP1;ratioP1;P1;durP2;ratioP2;P2;SDS_P1;SDS_P2;PMS_P1;PMS_P2;Temp;Humidity;BMP_temperature;BMP_pressure;BME280_temperature;BME280_humidity;BME280_pressure;Samples;Min_cycle;Max_cycle;Signal;HPM_P1;HPM_P2
2023/07/08 00:00:29;;;;;;;5.53;3.03;;;16.20;1.00;;;;;;5065265;28;20606;-84
2023/07/08 00:02:55;;;;;;;3.58;2.70;;;16.10;1.00;;;;;;5068637;28;20201;-84
2023/07/08 00:05:22;;;;;;;3.15;2.85;;;16.20;1.00;;;;;;5054831;28;20278;-84
2023/07/08 00:07:48;;;;;;;5.68;3.10;;;16.20;1.00;;;;;;5068360;28;20189;-84
2023/07/08 00:10:20;;;;;;;4.53;2.88;;;16.30;1.00;;;;;;5051458;28;20651;-84
2023/07/08 00:12:49;;;;;;;4.03;2.90;;;16.30;1.00;;;;;;5068366;28;20553;-84
2023/07/08 00:15:15;;;;;;;3.40;2.95;;;16.30;1.00;;;;;;5067568;28;20699;-84
2023/07/08 00:17:42;;;;;;;3.88;2.90;;;16.30;1.00;;;;;;5064374;28;20208;-85
2023/07/08 00:20:32;;;;;;;3.08;2.85;;;16.20;1.00;;;;;;5044417;28;20560;-84
2023/07/08 00:23:01;;;;;;;3.30;3.00;;;16.30;1.00;;;;;;5067177;28;20177;-85
2023/07/08 00:25:27;;;;;;;5.03;3.05;;;16.30;1.00;;;;;;5066959;28;20288;-83
2023/07/08 00:27:52;;;;;;;4.90;2.88;;;16.20;1.00;;;;;;5065669;28;20219;-84
2023/07/08 00:30:20;;;;;;;5.03;2.78;;;16.10;1.00;;;;;;5038307;28;20186;-85
2023/07/08 00:32:45;;;;;;;4.15;2.90;;;16.10;1.00;;;;;;5064495;28;20223;-84
2023/07/08 00:35:11;;;;;;;3.05;2.83;;;16.00;1.00;;;;;;5051753;28;20217;-84
2023/07/08 00:37:37;;;;;;;6.05;2.92;;;15.90;1.00;;;;;;5066833;28;20177;-85
2023/07/08 00:40:17;;;;;;;3.33;2.72;;;15.90;1.00;;;;;;5050715;28;20178;-85
2023/07/08 00:42:44;;;;;;;2.75;2.53;;;15.90;7.20;;;;;;5066950;28;20180;-85
2023/07/08 00:45:26;;;;;;;6.07;3.33;;;15.90;1.00;;;;;;5067713;28;20205;-84
2023/07/08 00:47:53;;;;;;;3.35;3.05;;;15.90;1.00;;;;;;5055603;28;20276;-85
2023/07/08 00:50:18;;;;;;;2.90;2.60;;;15.90;1.00;;;;;;5061423;28;20196;-84
2023/07/08 00:52:45;;;;;;;4.07;2.95;;;16.00;1.00;;;;;;5049487;28;20181;-84
2023/07/08 00:55:11;;;;;;;3.22;2.90;;;16.00;1.00;;;;;;5048631;28;20220;-84
2023/07/08 00:57:42;;;;;;;2.97;2.67;;;16.00;1.00;;;;;;5067673;28;20169;-85
2023/07/08 01:00:15;;;;;;;3.92;3.08;;;16.00;1.00;;;;;;5050882;28;20181;-84
2023/07/08 01:02:48;;;;;;;3.95;3.00;;;15.90;1.00;;;;;;5065682;28;20197;-85
2023/07/08 01:05:19;;;;;;;3.90;3.22;;;15.80;1.00;;;;;;5060005;28;20288;-84
2023/07/08 01:07:51;;;;;;;3.83;2.78;;;15.70;1.00;;;;;;5065144;28;20323;-85
2023/07/08 01:10:20;;;;;;;3.58;3.03;;;15.60;1.00;;;;;;5074108;28;20650;-83
2023/07/08 01:12:51;;;;;;;4.57;3.10;;;15.70;1.00;;;;;;5064969;28;20288;-85
2023/07/08 01:15:16;;;;;;;4.68;3.35;;;15.80;1.00;;;;;;5064233;28;20273;-83
2023/07/08 01:17:44;;;;;;;3.08;2.78;;;15.80;1.00;;;;;;5063133;28;20264;-83
2023/07/08 01:20:12;;;;;;;3.10;2.80;;;15.80;1.00;;;;;;5066504;28;20170;-84
2023/07/08 01:22:39;;;;;;;3.35;3.05;;;15.80;1.00;;;;;;5048752;28;20193;-84
2023/07/08 01:25:06;;;;;;;3.03;2.70;;;15.70;12.30;;;;;;5049089;28;20201;-85
2023/07/08 01:27:35;;;;;;;4.10;3.22;;;15.70;1.00;;;;;;5053434;28;20251;-84
2023/07/08 01:30:03;;;;;;;4.10;2.80;;;15.70;1.00;;;;;;5057922;28;20663;-84
2023/07/08 01:32:30;;;;;;;2.67;2.47;;;15.60;1.00;;;;;;5065467;28;20181;-84
2023/07/08 01:35:00;;;;;;;3.95;2.70;;;15.60;1.00;;;;;;5065442;28;20269;-85
2023/07/08 01:37:31;;;;;;;2.88;2.67;;;15.60;1.00;;;;;;5066977;28;20178;-85
2023/07/08 01:39:57;;;;;;;3.15;2.85;;;15.60;26.30;;;;;;5056984;28;20553;-84
2023/07/08 01:42:22;;;;;;;3.13;2.83;;;15.50;13.10;;;;;;5065609;28;20192;-86
2023/07/08 01:44:49;;;;;;;4.20;2.70;;;15.50;1.00;;;;;;5063827;28;20205;-85
2023/07/08 01:47:19;;;;;;;3.83;2.60;;;15.50;1.00;;;;;;5056551;28;20234;-84
2023/07/08 01:49:47;;;;;;;2.83;2.63;;;15.50;1.00;;;;;;5064525;28;20640;-84
2023/07/08 01:52:15;;;;;;;3.78;2.80;;;15.70;1.00;;;;;;5039724;28;20187;-84
2023/07/08 01:54:40;;;;;;;3.00;2.80;;;15.50;1.00;;;;;;5055159;28;20267;-85
2023/07/08 01:57:06;;;;;;;2.90;2.70;;;15.40;1.00;;;;;;5066707;28;20288;-85
2023/07/08 01:59:31;;;;;;;2.90;2.65;;;15.80;1.00;;;;;;5053612;28;20181;-84
2023/07/08 02:01:57;;;;;;;3.03;2.72;;;15.30;1.00;;;;;;5053125;28;20197;-83
2023/07/08 02:04:25;;;;;;;4.80;3.35;;;15.30;1.00;;;;;;5064339;28;20193;-86
2023/07/08 02:06:53;;;;;;;3.03;2.53;;;15.00;1.00;;;;;;5064117;28;20307;-83
2023/07/08 02:09:18;;;;;;;3.05;2.75;;;14.70;58.20;;;;;;5057669;28;20582;-85
2023/07/08 02:11:44;;;;;;;3.78;3.35;;;14.60;91.80;;;;;;5065197;28;20178;-84
2023/07/08 02:14:09;;;;;;;3.15;2.85;;;14.70;99.90;;;;;;5066189;28;20197;-84
2023/07/08 02:16:35;;;;;;;3.25;2.80;;;15.20;99.90;;;;;;5061746;28;20209;-85
2023/07/08 02:19:00;;;;;;;4.47;3.17;;;14.60;94.20;;;;;;5056612;28;20178;-83
2023/07/08 02:21:26;;;;;;;3.08;2.88;;;14.40;99.90;;;;;;5065141;28;20178;-85
2023/07/08 02:23:52;;;;;;;3.25;2.60;;;14.20;99.90;;;;;;5063451;28;20329;-84
2023/07/08 02:26:17;;;;;;;3.63;3.33;;;14.00;99.90;;;;;;5056369;28;20224;-85
2023/07/08 02:28:43;;;;;;;4.00;3.17;;;13.90;99.90;;;;;;5063555;28;20205;-85
2023/07/08 02:31:09;;;;;;;4.78;3.17;;;14.00;99.90;;;;;;5054876;28;20185;-85
2023/07/08 02:33:34;;;;;;;3.65;3.35;;;14.30;99.90;;;;;;5064175;28;20320;-86
2023/07/08 02:36:00;;;;;;;3.45;3.15;;;14.50;99.90;;;;;;5040420;28;20691;-84
2023/07/08 02:38:26;;;;;;;3.72;3.38;;;14.50;99.90;;;;;;5064387;28;20231;-85
2023/07/08 02:40:52;;;;;;;3.67;3.38;;;14.70;99.90;;;;;;5065032;28;20675;-85
2023/07/08 02:43:17;;;;;;;4.57;3.70;;;14.60;99.90;;;;;;5047376;28;20181;-84
2023/07/08 02:45:43;;;;;;;4.03;3.72;;;14.40;99.90;;;;;;5062708;28;20254;-85
2023/07/08 02:48:08;;;;;;;4.38;3.88;;;14.40;99.90;;;;;;5057372;28;20181;-84
2023/07/08 02:50:34;;;;;;;4.10;3.67;;;14.60;99.90;;;;;;5064715;28;20185;-83
2023/07/08 02:52:59;;;;;;;4.57;4.18;;;14.60;99.90;;;;;;5056340;28;20794;-84
2023/07/08 02:55:25;;;;;;;3.65;3.38;;;14.70;99.90;;;;;;5064538;28;20282;-84
2023/07/08 02:57:50;;;;;;;4.50;3.65;;;14.70;97.30;;;;;;5060632;28;20259;-85
2023/07/08 03:00:16;;;;;;;3.88;3.58;;;14.60;94.70;;;;;;5047519;28;20265;-84
2023/07/08 03:02:42;;;;;;;3.72;3.35;;;14.70;58.50;;;;;;5061778;28;20280;-85
2023/07/08 03:05:08;;;;;;;5.28;4.57;;;15.00;65.30;;;;;;5054421;28;20248;-86
2023/07/08 03:07:33;;;;;;;9.15;7.70;;;14.70;79.60;;;;;;5064689;28;20178;-84
2023/07/08 03:09:59;;;;;;;5.32;4.82;;;14.70;85.50;;;;;;5052672;28;20219;-85
2023/07/08 03:12:24;;;;;;;4.55;4.00;;;14.70;41.20;;;;;;5064669;28;20202;-85
2023/07/08 03:14:50;;;;;;;4.90;4.38;;;14.70;47.30;;;;;;5064069;28;20217;-85
2023/07/08 03:17:17;;;;;;;4.43;4.03;;;14.80;29.20;;;;;;5050200;28;20180;-85
2023/07/08 03:19:43;;;;;;;5.82;5.10;;;14.80;9.40;;;;;;5063357;28;20185;-84
2023/07/08 03:22:08;;;;;;;5.80;4.40;;;14.90;39.80;;;;;;5038987;28;20182;-85
2023/07/08 03:24:34;;;;;;;4.05;3.58;;;14.90;55.20;;;;;;5064493;28;20201;-84
2023/07/08 03:27:04;;;;;;;4.13;3.72;;;15.00;37.70;;;;;;5047483;28;20534;-85
2023/07/08 03:29:30;;;;;;;3.83;3.53;;;15.00;45.10;;;;;;5065613;28;20597;-84
2023/07/08 03:31:56;;;;;;;4.32;3.97;;;15.40;50.50;;;;;;5046942;28;20182;-84
2023/07/08 03:34:21;;;;;;;5.07;3.80;;;15.00;84.00;;;;;;5058786;28;20648;-85
2023/07/08 03:36:49;;;;;;;4.20;3.80;;;15.00;59.00;;;;;;5065441;28;20185;-85
2023/07/08 03:39:20;;;;;;;4.25;3.88;;;15.00;76.90;;;;;;5074649;28;20717;-85
2023/07/08 03:41:48;;;;;;;3.90;3.50;;;15.00;45.70;;;;;;5064292;28;20231;-85
2023/07/08 03:44:15;;;;;;;5.38;3.85;;;15.00;42.30;;;;;;5058005;28;20229;-85
2023/07/08 03:46:42;;;;;;;4.63;3.40;;;15.10;33.30;;;;;;5063186;28;20178;-83
2023/07/08 03:49:09;;;;;;;4.55;3.60;;;15.10;18.60;;;;;;5055660;28;20185;-83
2023/07/08 03:51:38;;;;;;;3.85;3.50;;;15.10;26.80;;;;;;5066599;28;20185;-84
2023/07/08 03:54:05;;;;;;;5.82;3.95;;;15.20;44.70;;;;;;5065812;28;20706;-84
2023/07/08 03:56:31;;;;;;;3.95;3.65;;;15.40;1.00;;;;;;5063474;28;20288;-84
2023/07/08 03:58:57;;;;;;;5.18;3.90;;;15.40;6.50;;;;;;5068122;28;20330;-86
2023/07/08 04:01:24;;;;;;;4.38;4.00;;;15.40;1.00;;;;;;5066847;28;21080;-86
2023/07/08 04:03:52;;;;;;;5.38;4.70;;;15.40;1.00;;;;;;5066868;28;20245;-86
2023/07/08 04:06:18;;;;;;;5.97;4.10;;;15.40;1.00;;;;;;5061727;28;20188;-85
2023/07/08 04:08:44;;;;;;;4.38;4.00;;;15.40;1.00;;;;;;5075795;28;20245;-86
2023/07/08 04:11:14;;;;;;;4.88;4.15;;;15.50;1.00;;;;;;5060485;28;20182;-86
2023/07/08 04:13:40;;;;;;;4.25;3.85;;;15.50;1.00;;;;;;5058899;28;20206;-85
2023/07/08 04:16:07;;;;;;;5.75;4.32;;;15.50;1.00;;;;;;5055674;28;20232;-86
2023/07/08 04:18:32;;;;;;;5.00;4.28;;;15.60;1.00;;;;;;5066742;28;20230;-85
2023/07/08 04:20:58;;;;;;;4.40;3.97;;;15.60;1.00;;;;;;5041622;28;20182;-86
2023/07/08 04:23:25;;;;;;;4.55;4.15;;;15.60;1.00;;;;;;5067874;28;20198;-87
2023/07/08 04:25:55;;;;;;;4.15;3.85;;;15.60;1.00;;;;;;5064388;28;20184;-86
2023/07/08 04:28:20;;;;;;;5.22;4.47;;;15.70;1.00;;;;;;5059597;28;20532;-85
2023/07/08 04:30:47;;;;;;;5.43;4.53;;;15.70;1.00;;;;;;5066584;28;20193;-86
2023/07/08 04:33:14;;;;;;;4.75;3.95;;;15.90;1.00;;;;;;5051501;28;20177;-85
2023/07/08 04:35:41;;;;;;;4.55;4.00;;;15.90;1.00;;;;;;5067627;28;20205;-85
2023/07/08 04:38:18;;;;;;;4.43;4.03;;;15.90;1.00;;;;;;5049284;28;20228;-86
2023/07/08 04:40:43;;;;;;;4.07;3.72;;;16.00;1.00;;;;;;5063601;28;20193;-86
2023/07/08 04:43:12;;;;;;;5.13;4.07;;;16.10;1.00;;;;;;5056651;28;20177;-85
2023/07/08 04:45:40;;;;;;;4.97;4.47;;;16.20;1.00;;;;;;5065874;28;20185;-86
2023/07/08 04:48:12;;;;;;;5.13;4.72;;;16.30;1.00;;;;;;5067781;28;20188;-85
2023/07/08 04:50:41;;;;;;;5.05;4.28;;;16.30;1.00;;;;;;5080576;28;20808;-85
2023/07/08 04:53:08;;;;;;;5.07;4.13;;;16.40;1.00;;;;;;5061807;28;20182;-85
2023/07/08 04:55:35;;;;;;;4.25;3.90;;;16.60;1.00;;;;;;5065982;28;20638;-85
2023/07/08 04:58:01;;;;;;;5.30;4.28;;;16.80;1.00;;;;;;5064809;28;20247;-86
2023/07/08 05:00:27;;;;;;;4.65;4.10;;;16.80;1.00;;;;;;5061956;28;20185;-85
2023/07/08 05:02:54;;;;;;;4.55;4.15;;;17.10;1.00;;;;;;5066284;28;20232;-86
2023/07/08 05:05:19;;;;;;;4.20;3.80;;;18.20;1.00;;;;;;5048603;28;20212;-86
2023/07/08 05:07:45;;;;;;;3.38;3.08;;;20.10;1.00;;;;;;5064128;28;20185;-86
2023/07/08 05:10:11;;;;;;;3.80;3.50;;;21.90;1.00;;;;;;5065233;28;20190;-85
2023/07/08 05:12:36;;;;;;;4.63;3.80;;;23.20;1.00;;;;;;5063872;28;20604;-86
2023/07/08 05:15:03;;;;;;;3.90;3.55;;;24.30;99.90;;;;;;5058676;28;20205;-86
2023/07/08 05:17:30;;;;;;;4.15;3.35;;;25.50;99.90;;;;;;5067686;28;20189;-87
2023/07/08 05:19:58;;;;;;;3.70;3.30;;;26.20;99.90;;;;;;5049711;28;20185;-87
2023/07/08 05:22:25;;;;;;;3.90;3.60;;;26.70;99.90;;;;;;5053519;28;20205;-87
2023/07/08 05:24:55;;;;;;;3.90;3.50;;;27.10;99.90;;;;;;5066050;28;20212;-86
2023/07/08 05:27:23;;;;;;;3.55;3.25;;;27.90;99.90;;;;;;5061057;28;20193;-86
2023/07/08 05:29:49;;;;;;;3.38;3.08;;;28.50;99.90;;;;;;5064740;28;20201;-86
2023/07/08 05:32:15;;;;;;;3.80;3.50;;;28.80;99.90;;;;;;5057224;28;20178;-87
2023/07/08 05:34:41;;;;;;;3.58;3.28;;;29.10;99.90;;;;;;5064532;28;20213;-87
2023/07/08 05:37:07;;;;;;;5.13;3.63;;;29.70;99.90;;;;;;5040050;28;20181;-86
2023/07/08 05:39:33;;;;;;;7.78;3.90;;;30.30;99.90;;;;;;5060760;28;20238;-86
2023/07/08 05:41:58;;;;;;;4.28;3.75;;;30.60;99.90;;;;;;5048449;28;20185;-86
2023/07/08 05:44:25;;;;;;;4.22;3.50;;;30.80;99.90;;;;;;5060755;28;20679;-87
2023/07/08 05:46:53;;;;;;;3.60;3.30;;;31.20;99.90;;;;;;5066515;28;20256;-87
2023/07/08 05:49:18;;;;;;;5.15;3.38;;;31.80;99.90;;;;;;5051266;28;20311;-86
2023/07/08 05:51:44;;;;;;;3.33;3.00;;;32.20;99.90;;;;;;5065020;28;20304;-87
2023/07/08 05:54:10;;;;;;;3.50;3.10;;;32.40;99.90;;;;;;5066774;28;20233;-87
2023/07/08 05:56:36;;;;;;;3.40;3.10;;;32.70;99.90;;;;;;5062196;28;20255;-87
2023/07/08 05:59:03;;;;;;;3.75;3.45;;;33.00;99.90;;;;;;5048948;28;20678;-87
2023/07/08 06:01:29;;;;;;;3.63;3.33;;;32.80;99.90;;;;;;5065279;28;21285;-86
2023/07/08 06:03:57;;;;;;;3.92;3.63;;;32.90;99.90;;;;;;5065025;28;20202;-86
2023/07/08 06:06:23;;;;;;;5.55;5.03;;;33.50;99.90;;;;;;5051542;28;20186;-87
2023/07/08 06:08:49;;;;;;;5.82;5.22;;;33.50;99.90;;;;;;5065000;28;20242;-87
2023/07/08 06:11:16;;;;;;;7.50;7.00;;;33.40;99.90;;;;;;5068248;28;20643;-85
2023/07/08 06:13:42;;;;;;;6.38;5.78;;;33.00;99.90;;;;;;5062785;28;20205;-86
2023/07/08 06:16:07;;;;;;;5.10;4.70;;;33.90;99.90;;;;;;5058019;28;20220;-86
2023/07/08 06:18:33;;;;;;;5.28;4.50;;;32.50;99.90;;;;;;5065262;28;20177;-87
2023/07/08 06:20:59;;;;;;;4.90;4.50;;;31.80;99.90;;;;;;5058753;28;20189;-87
2023/07/08 06:23:25;;;;;;;4.88;4.45;;;32.30;99.90;;;;;;5065785;28;20574;-88
2023/07/08 06:25:51;;;;;;;5.68;5.20;;;32.80;99.90;;;;;;5066450;28;20318;-87
2023/07/08 06:28:17;;;;;;;4.68;4.38;;;33.90;99.90;;;;;;5067645;28;20594;-88
2023/07/08 06:30:43;;;;;;;4.72;4.43;;;33.50;99.90;;;;;;5050386;28;20173;-85
2023/07/08 06:33:09;;;;;;;4.65;4.25;;;33.00;99.90;;;;;;5045995;28;20222;-86
2023/07/08 06:35:34;;;;;;;4.68;4.25;;;32.10;99.90;;;;;;5051437;28;21002;-85
2023/07/08 06:38:00;;;;;;;4.60;4.20;;;32.80;99.90;;;;;;5055436;28;20165;-85
2023/07/08 06:40:25;;;;;;;4.70;4.30;;;34.10;99.90;;;;;;5064831;28;20189;-86
2023/07/08 06:42:51;;;;;;;4.80;4.40;;;32.80;99.90;;;;;;5062614;28;20235;-86
2023/07/08 06:45:16;;;;;;;5.40;4.90;;;32.90;99.90;;;;;;5046240;28;21030;-87
2023/07/08 06:47:42;;;;;;;5.65;5.22;;;33.90;99.90;;;;;;5046298;28;20242;-87
2023/07/08 06:50:08;;;;;;;4.30;4.00;;;33.30;99.90;;;;;;5065394;28;20191;-86
2023/07/08 06:52:35;;;;;;;5.57;4.30;;;32.60;99.90;;;;;;5077347;28;20207;-86
2023/07/08 06:55:07;;;;;;;4.30;4.00;;;33.80;99.90;;;;;;5039511;28;20270;-86
2023/07/08 06:57:33;;;;;;;3.95;3.60;;;35.40;99.90;;;;;;5064644;28;20173;-86
2023/07/08 06:59:59;;;;;;;4.30;3.90;;;35.10;99.90;;;;;;5066930;28;20722;-85
2023/07/08 07:02:26;;;;;;;3.70;3.40;;;36.20;99.90;;;;;;5059668;28;20193;-86
2023/07/08 07:04:51;;;;;;;3.85;3.53;;;36.60;99.90;;;;;;5062298;28;20230;-86
2023/07/08 07:07:17;;;;;;;5.07;3.95;;;37.00;99.90;;;;;;5056542;28;20208;-86
2023/07/08 07:09:42;;;;;;;4.72;4.00;;;37.00;1.00;;;;;;5064488;28;20253;-86
2023/07/08 07:12:08;;;;;;;6.20;4.00;;;36.80;1.00;;;;;;5057165;28;20176;-86
2023/07/08 07:14:34;;;;;;;3.95;3.70;;;35.70;1.00;;;;;;5064096;28;20200;-86
2023/07/08 07:17:00;;;;;;;4.10;3.90;;;36.90;1.00;;;;;;5052959;28;20188;-85
2023/07/08 07:19:25;;;;;;;4.53;4.13;;;37.90;1.00;;;;;;5063469;28;20218;-86
2023/07/08 07:21:51;;;;;;;5.60;3.85;;;37.00;1.00;;;;;;5061378;28;20424;-86
2023/07/08 07:24:17;;;;;;;3.97;3.65;;;36.70;99.90;;;;;;5045654;28;20192;-86
2023/07/08 07:26:43;;;;;;;6.50;4.25;;;37.20;1.00;;;;;;5060238;28;20188;-85
2023/07/08 07:29:08;;;;;;;5.05;3.75;;;36.60;1.00;;;;;;5069182;28;20181;-84
2023/07/08 07:31:34;;;;;;;9.45;4.80;;;37.00;1.00;;;;;;5050833;28;20192;-85
2023/07/08 07:34:01;;;;;;;4.00;3.65;;;36.50;1.00;;;;;;5059986;28;20215;-86
2023/07/08 07:36:28;;;;;;;7.22;4.50;;;33.90;1.00;;;;;;5067708;28;20212;-85
2023/07/08 07:38:54;;;;;;;7.70;4.25;;;31.80;99.90;;;;;;5066688;28;20174;-85
2023/07/08 07:41:20;;;;;;;7.90;4.40;;;30.10;99.90;;;;;;5067136;28;20184;-85
2023/07/08 07:43:46;;;;;;;4.35;3.95;;;29.10;99.90;;;;;;5066439;28;20214;-86
2023/07/08 07:46:12;;;;;;;4.63;3.60;;;28.10;99.90;;;;;;5050959;28;20190;-85
2023/07/08 07:48:37;;;;;;;4.82;3.85;;;27.70;1.00;;;;;;5069242;28;20178;-85
2023/07/08 07:51:05;;;;;;;4.05;3.70;;;27.20;99.90;;;;;;5060703;28;20185;-85
2023/07/08 07:53:31;;;;;;;5.78;3.95;;;26.70;99.90;;;;;;5069654;28;20197;-86
2023/07/08 07:56:01;;;;;;;4.43;4.03;;;26.30;99.90;;;;;;5058929;28;20747;-85
2023/07/08 07:58:27;;;;;;;4.22;3.85;;;26.50;99.90;;;;;;5069453;28;20691;-86
2023/07/08 08:00:53;;;;;;;4.25;3.85;;;26.50;99.90;;;;;;5068362;28;20193;-86
2023/07/08 08:03:20;;;;;;;4.43;3.95;;;26.50;99.90;;;;;;5062214;28;20882;-86
2023/07/08 08:05:45;;;;;;;4.10;3.50;;;26.60;99.90;;;;;;5068965;28;20178;-86
2023/07/08 08:08:11;;;;;;;4.00;3.60;;;26.60;99.90;;;;;;5052143;28;20669;-86
2023/07/08 08:10:37;;;;;;;4.60;3.42;;;26.60;99.90;;;;;;5065814;28;20696;-86
2023/07/08 08:13:02;;;;;;;4.28;3.83;;;26.60;99.90;;;;;;5056238;28;20729;-86
2023/07/08 08:15:28;;;;;;;6.03;3.92;;;26.60;99.90;;;;;;5062922;28;20354;-86
2023/07/08 08:17:54;;;;;;;5.38;3.90;;;26.80;99.90;;;;;;5067926;28;20556;-85
2023/07/08 08:20:22;;;;;;;4.00;3.60;;;26.80;99.90;;;;;;5062994;28;20181;-86
2023/07/08 08:22:48;;;;;;;3.97;3.58;;;26.60;99.90;;;;;;5066133;28;20181;-85
2023/07/08 08:25:15;;;;;;;5.75;3.63;;;26.70;99.90;;;;;;5047143;28;20270;-86
2023/07/08 08:27:41;;;;;;;6.25;3.70;;;26.80;99.90;;;;;;5067553;28;20292;-86
2023/07/08 08:30:07;;;;;;;3.97;3.67;;;26.80;99.90;;;;;;5061008;28;20276;-87
2023/07/08 08:32:33;;;;;;;3.95;3.58;;;26.70;99.90;;;;;;5067898;28;20208;-85
2023/07/08 08:34:59;;;;;;;4.47;3.92;;;26.80;99.90;;;;;;5068807;28;20212;-85
2023/07/08 08:37:24;;;;;;;4.05;3.40;;;26.70;99.90;;;;;;5062886;28;20174;-85
2023/07/08 08:39:50;;;;;;;3.97;3.67;;;26.70;99.90;;;;;;5067033;28;20189;-85
2023/07/08 08:42:34;;;;;;;12.82;11.63;;;26.70;99.90;;;;;;5053257;28;20546;-85
2023/07/08 08:45:01;;;;;;;6.13;4.07;;;26.90;99.90;;;;;;5067385;28;20205;-86
2023/07/08 08:47:38;;;;;;;4.70;3.83;;;26.90;99.90;;;;;;5066760;28;20281;-86
2023/07/08 08:50:14;;;;;;;4.57;3.45;;;27.10;99.90;;;;;;5061774;28;20182;-85
2023/07/08 08:52:41;;;;;;;5.32;3.70;;;27.10;99.90;;;;;;5066636;28;20250;-85
2023/07/08 08:55:15;;;;;;;3.97;3.67;;;27.30;99.90;;;;;;5050698;28;20213;-86
2023/07/08 08:57:49;;;;;;;3.83;3.53;;;27.40;1.00;;;;;;5066847;28;20262;-85
2023/07/08 09:00:23;;;;;;;4.78;3.78;;;27.40;99.90;;;;;;5067479;28;20177;-85
2023/07/08 09:02:59;;;;;;;4.75;3.70;;;27.40;99.90;;;;;;5048639;28;20196;-85
2023/07/08 09:05:25;;;;;;;3.88;3.42;;;27.40;1.00;;;;;;5049000;28;20294;-85
2023/07/08 09:08:15;;;;;;;4.40;3.47;;;27.60;1.00;;;;;;5056428;28;20205;-85
2023/07/08 09:10:53;;;;;;;5.13;3.50;;;27.70;99.90;;;;;;5058881;28;20201;-85
2023/07/08 09:13:35;;;;;;;4.03;3.55;;;27.70;99.90;;;;;;5041372;28;20246;-85
2023/07/08 09:16:24;;;;;;;5.50;3.55;;;27.70;1.00;;;;;;5067570;28;20239;-85
2023/07/08 09:19:06;;;;;;;4.47;3.28;;;27.80;99.90;;;;;;5066585;28;20216;-86
2023/07/08 09:21:40;;;;;;;6.15;3.50;;;27.70;1.00;;;;;;5054543;28;21118;-84
2023/07/08 09:24:16;;;;;;;4.45;3.75;;;27.80;99.90;;;;;;5049724;28;20284;-85
2023/07/08 09:26:43;;;;;;;4.20;3.83;;;27.90;99.90;;;;;;5063898;28;20204;-85
2023/07/08 09:29:09;;;;;;;4.78;3.65;;;27.90;99.90;;;;;;5048837;28;20264;-85
2023/07/08 09:31:39;;;;;;;3.80;3.38;;;28.00;99.90;;;;;;5053567;28;20195;-85
2023/07/08 09:34:13;;;;;;;5.25;3.50;;;28.10;99.90;;;;;;5039667;28;20201;-85
2023/07/08 09:36:42;;;;;;;4.28;3.40;;;28.00;99.90;;;;;;5061798;28;20200;-85
2023/07/08 09:39:12;;;;;;;3.88;3.40;;;28.00;99.90;;;;;;5071570;28;20190;-85
2023/07/08 09:41:38;;;;;;;4.47;3.30;;;28.10;99.90;;;;;;5067302;28;20707;-84
2023/07/08 09:44:33;;;;;;;3.80;3.50;;;28.10;99.90;;;;;;5049301;28;20293;-85
2023/07/08 09:46:59;;;;;;;6.15;3.33;;;28.20;1.00;;;;;;5065796;28;20178;-86
2023/07/08 09:49:24;;;;;;;3.58;3.28;;;28.40;1.00;;;;;;5065566;28;20181;-86
2023/07/08 09:51:51;;;;;;;9.25;3.72;;;28.30;99.90;;;;;;5066776;28;20655;-85
2023/07/08 09:54:19;;;;;;;4.43;3.50;;;28.30;99.90;;;;;;5068284;28;20687;-85
2023/07/08 09:56:52;;;;;;;4.07;3.67;;;28.30;1.00;;;;;;5065304;28;20221;-85
2023/07/08 09:59:21;;;;;;;4.45;3.63;;;28.00;1.00;;;;;;5053949;28;20196;-85
2023/07/08 10:01:47;;;;;;;5.82;4.05;;;28.20;1.00;;;;;;5065684;28;20196;-86
2023/07/08 10:04:12;;;;;;;4.75;3.58;;;28.20;1.00;;;;;;5050319;28;20201;-85
2023/07/08 10:06:38;;;;;;;4.75;3.50;;;28.30;99.90;;;;;;5063744;28;20570;-86
2023/07/08 10:09:13;;;;;;;4.35;3.95;;;28.20;1.00;;;;;;5047138;28;20189;-86
2023/07/08 10:11:47;;;;;;;4.88;3.47;;;28.40;1.00;;;;;;5060703;28;20185;-85
2023/07/08 10:14:37;;;;;;;6.32;3.75;;;28.70;1.00;;;;;;5058445;28;20209;-85
2023/07/08 10:17:04;;;;;;;4.95;3.80;;;28.30;99.90;;;;;;5065923;28;20288;-85
2023/07/08 10:19:29;;;;;;;4.82;3.58;;;28.20;1.00;;;;;;5065488;28;20264;-87
2023/07/08 10:21:55;;;;;;;3.83;3.53;;;28.20;99.90;;;;;;5065311;28;20551;-85
2023/07/08 10:24:52;;;;;;;4.22;3.83;;;28.20;1.00;;;;;;5044128;28;20205;-87
2023/07/08 10:27:21;;;;;;;5.43;3.85;;;28.20;99.90;;;;;;5040489;28;20711;-86
2023/07/08 10:30:06;;;;;;;9.73;3.38;;;28.40;1.00;;;;;;5054694;28;20177;-85
2023/07/08 10:32:53;;;;;;;4.25;3.63;;;28.70;99.90;;;;;;5054816;28;20174;-85
2023/07/08 10:35:33;;;;;;;5.18;3.75;;;28.80;99.90;;;;;;5063262;28;20233;-85
2023/07/08 10:38:27;;;;;;;3.95;3.55;;;28.70;1.00;;;;;;5055363;28;20662;-86
2023/07/08 10:41:03;;;;;;;5.18;3.30;;;28.80;1.00;;;;;;5072484;28;20194;-86
2023/07/08 10:43:31;;;;;;;3.88;3.28;;;28.90;99.90;;;;;;5046882;28;20554;-85
2023/07/08 10:46:09;;;;;;;4.53;3.25;;;29.10;99.90;;;;;;5058032;28;20199;-86
2023/07/08 10:48:35;;;;;;;6.35;3.50;;;29.30;99.90;;;;;;5052966;28;20181;-85
2023/07/08 10:51:19;;;;;;;3.92;3.45;;;29.20;99.90;;;;;;5047878;28;20234;-86
2023/07/08 10:54:22;;;;;;;3.75;3.33;;;29.00;99.90;;;;;;5060438;28;20682;-86
2023/07/08 10:57:13;;;;;;;4.45;3.60;;;29.10;99.90;;;;;;5060884;28;20200;-86
2023/07/08 11:00:27;;;;;;;3.45;3.08;;;29.00;99.90;;;;;;5060822;28;20173;-85
2023/07/08 11:03:15;;;;;;;3.50;3.20;;;29.30;99.90;;;;;;4951330;28;20291;-86
2023/07/08 11:05:47;;;;;;;4.40;3.28;;;29.50;99.90;;;;;;5066231;28;20181;-85
2023/07/08 11:08:38;;;;;;;4.53;3.40;;;29.40;99.90;;;;;;5065389;28;20177;-85
2023/07/08 11:11:36;;;;;;;5.53;3.60;;;29.60;99.90;;;;;;5069004;28;20617;-87
2023/07/08 11:14:13;;;;;;;4.15;3.13;;;29.60;99.90;;;;;;5059173;28;20217;-87
2023/07/08 11:16:47;;;;;;;3.58;3.28;;;29.50;99.90;;;;;;5069425;28;20212;-87
2023/07/08 11:19:22;;;;;;;6.28;3.55;;;29.70;99.90;;;;;;5062883;28;20169;-87
2023/07/08 11:21:51;;;;;;;4.25;3.65;;;29.50;99.90;;;;;;5061674;28;20178;-86
2023/07/08 11:24:28;;;;;;;4.28;3.55;;;29.50;99.90;;;;;;5051325;28;20206;-86
2023/07/08 11:26:58;;;;;;;3.63;3.30;;;29.70;99.90;;;;;;5059380;28;20208;-87
2023/07/08 11:29:44;;;;;;;4.50;3.80;;;29.80;99.90;;;;;;5063878;28;20247;-86
2023/07/08 11:32:16;;;;;;;3.95;3.55;;;30.00;99.90;;;;;;5068888;28;20216;-86
2023/07/08 11:34:44;;;;;;;5.10;3.42;;;30.20;99.90;;;;;;5070617;22;20298;-75
2023/07/08 11:37:11;;;;;;;3.85;3.50;;;30.30;1.00;;;;;;5053894;28;20769;-79
2023/07/08 11:39:45;;;;;;;6.18;3.50;;;30.50;1.00;;;;;;5035958;28;20181;-76
2023/07/08 11:42:14;;;;;;;4.10;3.70;;;30.50;99.90;;;;;;5039304;28;20962;-80
2023/07/08 11:44:47;;;;;;;4.20;3.80;;;30.60;1.00;;;;;;5056760;28;20179;-78
2023/07/08 11:47:19;;;;;;;4.75;3.53;;;;;;;;;;5057832;28;20205;-79
2023/07/08 11:49:49;;;;;;;4.47;3.20;;;30.60;99.90;;;;;;5055618;28;20181;-77
2023/07/08 11:52:17;;;;;;;6.05;3.72;;;;;;;;;;5058245;28;20461;-77
2023/07/08 11:54:46;;;;;;;3.47;3.17;;;30.70;1.00;;;;;;5056204;28;20190;-76
2023/07/08 11:57:19;;;;;;;4.90;3.80;;;30.60;1.00;;;;;;5058403;28;20686;-78
2023/07/08 11:59:46;;;;;;;3.75;3.42;;;;;;;;;;5057192;28;20535;-79
2023/07/08 12:02:14;;;;;;;4.25;3.38;;;;;;;;;;5059094;28;20185;-79
2023/07/08 12:04:53;;;;;;;4.40;3.42;;;;;;;;;;5057486;28;20177;-82
2023/07/08 12:07:23;;;;;;;4.95;3.38;;;;;;;;;;5056141;28;20201;-78
2023/07/08 12:10:22;;;;;;;3.75;3.45;;;30.40;99.90;;;;;;5055089;28;20668;-83
2023/07/08 12:12:48;;;;;;;3.55;3.25;;;30.50;99.90;;;;;;5040296;28;20181;-83
2023/07/08 12:15:16;;;;;;;4.57;3.83;;;30.40;99.90;;;;;;5055579;28;20204;-81
2023/07/08 12:17:42;;;;;;;4.00;3.70;;;30.40;99.90;;;;;;5040930;28;20169;-80
2023/07/08 12:20:25;;;;;;;3.78;3.47;;;30.50;1.00;;;;;;5040311;28;20231;-83
2023/07/08 12:22:51;;;;;;;4.82;3.90;;;30.50;99.90;;;;;;5057442;28;20186;-82
2023/07/08 12:25:21;;;;;;;4.13;3.72;;;30.70;99.90;;;;;;5038596;28;20189;-83
2023/07/08 12:27:47;;;;;;;3.88;3.47;;;30.70;99.90;;;;;;5049255;28;20188;-84
2023/07/08 12:30:15;;;;;;;4.22;3.85;;;30.80;99.90;;;;;;5041962;28;20185;-79
2023/07/08 12:32:42;;;;;;;3.85;3.53;;;30.70;99.90;;;;;;5058312;28;20511;-80
2023/07/08 12:35:22;;;;;;;4.03;3.72;;;30.50;99.90;;;;;;5054780;28;20295;-83
2023/07/08 12:37:48;;;;;;;4.43;3.78;;;30.60;99.90;;;;;;5055494;28;20178;-83
2023/07/08 12:40:15;;;;;;;4.47;4.07;;;30.70;99.90;;;;;;5037730;28;20221;-81
2023/07/08 12:42:40;;;;;;;3.72;3.42;;;30.70;99.90;;;;;;5041788;28;20236;-81
2023/07/08 12:45:18;;;;;;;4.38;3.90;;;30.90;99.90;;;;;;5057975;28;20181;-79
2023/07/08 12:47:45;;;;;;;14.10;4.25;;;31.10;99.90;;;;;;5039282;28;20189;-81
2023/07/08 12:50:12;;;;;;;5.85;3.80;;;31.20;99.90;;;;;;5056485;28;20297;-80
2023/07/08 12:52:38;;;;;;;5.85;3.90;;;31.10;99.90;;;;;;5058138;28;20193;-82
2023/07/08 12:55:05;;;;;;;4.35;3.80;;;31.20;99.90;;;;;;5056243;28;20205;-84
2023/07/08 12:57:31;;;;;;;4.35;3.95;;;31.10;99.90;;;;;;5037699;28;20293;-84
2023/07/08 12:59:58;;;;;;;4.78;4.30;;;31.10;99.90;;;;;;5055645;28;20657;-82
2023/07/08 13:02:28;;;;;;;4.53;4.05;;;31.00;99.90;;;;;;5057697;28;20181;-78